sensor_id;sensor_type;location;lat;lon;timestamp;temperature;humidity
22249;DHT22;67538;52.180;5.646;2024-02-23T00:01:24;4.60;99.90
22249;DHT22;67538;52.180;5.646;2024-02-23T00:03:51;4.60;99.90
22249;DHT22;67538;52.180;5.646;2024-02-23T00:06:20;4.70;99.90
22249;DHT22;67538;52.180;5.646;2024-02-23T00:08:50;4.70;99.90
22249;DHT22;67538;52.180;5.646;2024-02-23T00:11:19;4.80;99.90
22249;DHT22;67538;52.180;5.646;2024-02-23T00:13:46;4.90;99.90
22249;DHT22;67538;52.180;5.646;2024-02-23T00:16:13;4.90;99.90
22249;DHT22;67538;52.180;5.646;2024-02-23T00:18:40;4.90;99.90
22249;DHT22;67538;52.180;5.646;2024-02-23T00:21:07;4.90;99.90
22249;DHT22;67538;52.180;5.646;2024-02-23T00:23:34;5.10;99.90
22249;DHT22;67538;52.180;5.646;2024-02-23T00:26:03;5.10;99.90
22249;DHT22;67538;52.180;5.646;2024-02-23T00:28:30;5.20;99.90
22249;DHT22;67538;52.180;5.646;2024-02-23T00:30:57;5.20;99.90
22249;DHT22;67538;52.180;5.646;2024-02-23T00:33:24;5.30;99.90
22249;DHT22;67538;52.180;5.646;2024-02-23T00:35:51;5.40;99.90
22249;DHT22;67538;52.180;5.646;2024-02-23T00:38:18;5.40;99.90
22249;DHT22;67538;52.180;5.646;2024-02-23T00:40:45;5.40;99.90
22249;DHT22;67538;52.180;5.646;2024-02-23T00:43:14;5.50;99.90
22249;DHT22;67538;52.180;5.646;2024-02-23T00:45:41;5.50;99.90
22249;DHT22;67538;52.180;5.646;2024-02-23T00:48:08;5.60;99.90
22249;DHT22;67538;52.180;5.646;2024-02-23T00:50:35;5.60;99.90
22249;DHT22;67538;52.180;5.646;2024-02-23T00:53:03;5.60;99.90
22249;DHT22;67538;52.180;5.646;2024-02-23T00:55:30;5.70;99.90
22249;DHT22;67538;52.180;5.646;2024-02-23T00:57:57;5.70;99.90
22249;DHT22;67538;52.180;5.646;2024-02-23T01:00:26;5.70;99.90
22249;DHT22;67538;52.180;5.646;2024-02-23T01:02:53;5.80;99.90
22249;DHT22;67538;52.180;5.646;2024-02-23T01:05:20;5.80;99.90
22249;DHT22;67538;52.180;5.646;2024-02-23T01:07:47;5.80;99.90
22249;DHT22;67538;52.180;5.646;2024-02-23T01:10:14;5.70;99.90
22249;DHT22;67538;52.180;5.646;2024-02-23T01:12:41;5.70;99.90
22249;DHT22;67538;52.180;5.646;2024-02-23T01:15:09;5.70;99.90
22249;DHT22;67538;52.180;5.646;2024-02-23T01:17:37;5.80;99.90
22249;DHT22;67538;52.180;5.646;2024-02-23T01:20:05;5.80;99.90
22249;DHT22;67538;52.180;5.646;2024-02-23T01:22:33;5.90;99.90
22249;DHT22;67538;52.180;5.646;2024-02-23T01:25:00;5.90;99.90
22249;DHT22;67538;52.180;5.646;2024-02-23T01:27:27;5.80;99.90
22249;DHT22;67538;52.180;5.646;2024-02-23T01:29:54;5.80;99.90
22249;DHT22;67538;52.180;5.646;2024-02-23T01:32:22;5.60;99.90
22249;DHT22;67538;52.180;5.646;2024-02-23T01:34:51;5.50;99.90
22249;DHT22;67538;52.180;5.646;2024-02-23T01:37:18;5.50;99.90
22249;DHT22;67538;52.180;5.646;2024-02-23T01:39:45;5.50;99.90
22249;DHT22;67538;52.180;5.646;2024-02-23T01:42:12;5.40;99.90
22249;DHT22;67538;52.180;5.646;2024-02-23T01:44:39;5.40;99.90
22249;DHT22;67538;52.180;5.646;2024-02-23T01:47:06;5.40;99.90
22249;DHT22;67538;52.180;5.646;2024-02-23T01:49:34;5.40;99.90
22249;DHT22;67538;52.180;5.646;2024-02-23T01:52:03;5.40;99.90
22249;DHT22;67538;52.180;5.646;2024-02-23T01:54:31;5.30;99.90
22249;DHT22;67538;52.180;5.646;2024-02-23T01:57:00;5.30;99.90
22249;DHT22;67538;52.180;5.646;2024-02-23T01:59:28;5.30;99.90
22249;DHT22;67538;52.180;5.646;2024-02-23T02:01:56;5.40;99.90
22249;DHT22;67538;52.180;5.646;2024-02-23T02:04:23;5.50;99.90
22249;DHT22;67538;52.180;5.646;2024-02-23T02:06:50;5.40;99.90
22249;DHT22;67538;52.180;5.646;2024-02-23T02:09:18;5.40;99.90
22249;DHT22;67538;52.180;5.646;2024-02-23T02:11:47;5.40;99.90
22249;DHT22;67538;52.180;5.646;2024-02-23T02:14:14;5.50;99.90
22249;DHT22;67538;52.180;5.646;2024-02-23T02:16:41;5.50;99.90
22249;DHT22;67538;52.180;5.646;2024-02-23T02:19:09;5.60;99.90
22249;DHT22;67538;52.180;5.646;2024-02-23T02:21:37;5.50;99.90
22249;DHT22;67538;52.180;5.646;2024-02-23T02:24:05;5.50;99.90
22249;DHT22;67538;52.180;5.646;2024-02-23T02:26:35;5.50;99.90
22249;DHT22;67538;52.180;5.646;2024-02-23T02:29:03;5.50;99.90
22249;DHT22;67538;52.180;5.646;2024-02-23T02:31:30;5.50;99.90
22249;DHT22;67538;52.180;5.646;2024-02-23T02:34:03;5.50;99.90
22249;DHT22;67538;52.180;5.646;2024-02-23T02:36:30;5.40;99.90
22249;DHT22;67538;52.180;5.646;2024-02-23T02:38:57;5.50;99.90
22249;DHT22;67538;52.180;5.646;2024-02-23T02:41:27;5.40;99.90
22249;DHT22;67538;52.180;5.646;2024-02-23T02:43:56;5.40;99.90
22249;DHT22;67538;52.180;5.646;2024-02-23T02:46:23;5.40;99.90
22249;DHT22;67538;52.180;5.646;2024-02-23T02:48:50;5.30;99.90
22249;DHT22;67538;52.180;5.646;2024-02-23T02:51:18;5.30;99.90
22249;DHT22;67538;52.180;5.646;2024-02-23T02:53:45;5.30;99.90
22249;DHT22;67538;52.180;5.646;2024-02-23T02:56:12;5.30;99.90
22249;DHT22;67538;52.180;5.646;2024-02-23T02:58:39;5.20;99.90
22249;DHT22;67538;52.180;5.646;2024-02-23T03:01:08;5.20;99.90
22249;DHT22;67538;52.180;5.646;2024-02-23T03:03:35;5.20;99.90
22249;DHT22;67538;52.180;5.646;2024-02-23T03:06:02;5.20;99.90
22249;DHT22;67538;52.180;5.646;2024-02-23T03:08:31;5.20;99.90
22249;DHT22;67538;52.180;5.646;2024-02-23T03:10:58;5.20;99.90
22249;DHT22;67538;52.180;5.646;2024-02-23T03:13:25;5.20;99.90
22249;DHT22;67538;52.180;5.646;2024-02-23T03:15:52;5.10;99.90
22249;DHT22;67538;52.180;5.646;2024-02-23T03:18:21;5.20;99.90
22249;DHT22;67538;52.180;5.646;2024-02-23T03:20:48;5.10;99.90
22249;DHT22;67538;52.180;5.646;2024-02-23T03:23:15;5.10;99.90
22249;DHT22;67538;52.180;5.646;2024-02-23T03:25:42;5.10;99.90
22249;DHT22;67538;52.180;5.646;2024-02-23T03:28:09;5.10;99.90
22249;DHT22;67538;52.180;5.646;2024-02-23T03:30:36;5.10;99.90
22249;DHT22;67538;52.180;5.646;2024-02-23T03:33:04;5.20;99.90
22249;DHT22;67538;52.180;5.646;2024-02-23T03:35:32;5.10;99.90
22249;DHT22;67538;52.180;5.646;2024-02-23T03:38:00;5.20;99.90
22249;DHT22;67538;52.180;5.646;2024-02-23T03:40:27;5.20;99.90
22249;DHT22;67538;52.180;5.646;2024-02-23T03:42:54;5.20;99.90
22249;DHT22;67538;52.180;5.646;2024-02-23T03:45:21;5.10;99.90
22249;DHT22;67538;52.180;5.646;2024-02-23T03:47:50;5.10;99.90
22249;DHT22;67538;52.180;5.646;2024-02-23T03:50:17;5.20;99.90
22249;DHT22;67538;52.180;5.646;2024-02-23T03:52:45;5.20;99.90
22249;DHT22;67538;52.180;5.646;2024-02-23T03:55:12;5.10;99.90
22249;DHT22;67538;52.180;5.646;2024-02-23T03:57:39;5.10;99.90
22249;DHT22;67538;52.180;5.646;2024-02-23T04:00:07;5.10;99.90
22249;DHT22;67538;52.180;5.646;2024-02-23T04:02:34;5.20;99.90
22249;DHT22;67538;52.180;5.646;2024-02-23T04:05:01;5.10;99.90
22249;DHT22;67538;52.180;5.646;2024-02-23T04:07:28;5.10;99.90
22249;DHT22;67538;52.180;5.646;2024-02-23T04:09:57;5.10;99.90
22249;DHT22;67538;52.180;5.646;2024-02-23T04:12:24;5.10;99.90
22249;DHT22;67538;52.180;5.646;2024-02-23T04:14:51;5.10;99.90
22249;DHT22;67538;52.180;5.646;2024-02-23T04:17:18;5.10;99.90
22249;DHT22;67538;52.180;5.646;2024-02-23T04:19:45;5.10;99.90
22249;DHT22;67538;52.180;5.646;2024-02-23T04:22:12;5.10;99.90
22249;DHT22;67538;52.180;5.646;2024-02-23T04:24:40;5.10;99.90
22249;DHT22;67538;52.180;5.646;2024-02-23T04:27:09;5.10;99.90
22249;DHT22;67538;52.180;5.646;2024-02-23T04:29:36;5.10;99.90
22249;DHT22;67538;52.180;5.646;2024-02-23T04:32:04;5.10;99.90
22249;DHT22;67538;52.180;5.646;2024-02-23T04:34:31;5.10;99.90
22249;DHT22;67538;52.180;5.646;2024-02-23T04:36:58;5.10;99.90
22249;DHT22;67538;52.180;5.646;2024-02-23T04:39:25;5.10;99.90
22249;DHT22;67538;52.180;5.646;2024-02-23T04:41:52;5.00;99.90
22249;DHT22;67538;52.180;5.646;2024-02-23T04:44:21;5.00;99.90
22249;DHT22;67538;52.180;5.646;2024-02-23T04:46:48;5.00;99.90
22249;DHT22;67538;52.180;5.646;2024-02-23T04:49:15;5.00;99.90
22249;DHT22;67538;52.180;5.646;2024-02-23T04:51:42;5.00;99.90
22249;DHT22;67538;52.180;5.646;2024-02-23T04:54:10;5.00;99.90
22249;DHT22;67538;52.180;5.646;2024-02-23T04:56:37;4.90;99.90
22249;DHT22;67538;52.180;5.646;2024-02-23T04:59:04;5.00;99.90
22249;DHT22;67538;52.180;5.646;2024-02-23T05:01:36;5.00;99.90
22249;DHT22;67538;52.180;5.646;2024-02-23T05:04:04;5.00;99.90
22249;DHT22;67538;52.180;5.646;2024-02-23T05:06:31;5.00;99.90
22249;DHT22;67538;52.180;5.646;2024-02-23T05:08:58;5.00;99.90
22249;DHT22;67538;52.180;5.646;2024-02-23T05:11:25;5.00;99.90
22249;DHT22;67538;52.180;5.646;2024-02-23T05:13:52;5.10;99.90
22249;DHT22;67538;52.180;5.646;2024-02-23T05:16:20;5.00;99.90
22249;DHT22;67538;52.180;5.646;2024-02-23T05:18:48;5.10;99.90
22249;DHT22;67538;52.180;5.646;2024-02-23T05:21:16;5.10;99.90
22249;DHT22;67538;52.180;5.646;2024-02-23T05:23:43;5.10;99.90
22249;DHT22;67538;52.180;5.646;2024-02-23T05:26:12;5.10;99.90
22249;DHT22;67538;52.180;5.646;2024-02-23T05:28:39;5.20;99.90
22249;DHT22;67538;52.180;5.646;2024-02-23T05:31:06;5.20;99.90
22249;DHT22;67538;52.180;5.646;2024-02-23T05:33:33;5.20;99.90
22249;DHT22;67538;52.180;5.646;2024-02-23T05:36:01;5.20;99.90
22249;DHT22;67538;52.180;5.646;2024-02-23T05:38:28;5.20;99.90
22249;DHT22;67538;52.180;5.646;2024-02-23T05:40:56;5.30;99.90
22249;DHT22;67538;52.180;5.646;2024-02-23T05:43:23;5.30;99.90
22249;DHT22;67538;52.180;5.646;2024-02-23T05:45:50;5.30;99.90
22249;DHT22;67538;52.180;5.646;2024-02-23T05:48:17;5.40;99.90
22249;DHT22;67538;52.180;5.646;2024-02-23T05:50:44;5.40;99.90
22249;DHT22;67538;52.180;5.646;2024-02-23T05:53:13;5.40;99.90
22249;DHT22;67538;52.180;5.646;2024-02-23T05:55:40;5.40;99.90
22249;DHT22;67538;52.180;5.646;2024-02-23T05:58:07;5.40;99.90
22249;DHT22;67538;52.180;5.646;2024-02-23T06:00:35;5.50;99.90
22249;DHT22;67538;52.180;5.646;2024-02-23T06:03:02;5.50;99.90
22249;DHT22;67538;52.180;5.646;2024-02-23T06:05:29;5.50;99.90
22249;DHT22;67538;52.180;5.646;2024-02-23T06:07:56;5.50;99.90
22249;DHT22;67538;52.180;5.646;2024-02-23T06:10:25;5.50;99.90
22249;DHT22;67538;52.180;5.646;2024-02-23T06:12:52;5.50;99.90
22249;DHT22;67538;52.180;5.646;2024-02-23T06:15:19;5.50;99.90
22249;DHT22;67538;52.180;5.646;2024-02-23T06:17:46;5.60;99.90
22249;DHT22;67538;52.180;5.646;2024-02-23T06:20:14;5.60;99.90
22249;DHT22;67538;52.180;5.646;2024-02-23T06:22:41;5.60;99.90
22249;DHT22;67538;52.180;5.646;2024-02-23T06:25:09;5.60;99.90
22249;DHT22;67538;52.180;5.646;2024-02-23T06:27:39;5.60;99.90
22249;DHT22;67538;52.180;5.646;2024-02-23T06:30:07;5.70;99.90
22249;DHT22;67538;52.180;5.646;2024-02-23T06:32:36;5.70;99.90
22249;DHT22;67538;52.180;5.646;2024-02-23T06:35:04;5.70;99.90
22249;DHT22;67538;52.180;5.646;2024-02-23T06:37:32;5.70;99.90
22249;DHT22;67538;52.180;5.646;2024-02-23T06:39:59;5.70;99.90
22249;DHT22;67538;52.180;5.646;2024-02-23T06:42:26;5.70;99.90
22249;DHT22;67538;52.180;5.646;2024-02-23T06:44:55;5.70;99.90
22249;DHT22;67538;52.180;5.646;2024-02-23T06:47:22;5.80;99.90
22249;DHT22;67538;52.180;5.646;2024-02-23T06:49:50;5.70;99.90
22249;DHT22;67538;52.180;5.646;2024-02-23T06:52:17;5.70;99.90
22249;DHT22;67538;52.180;5.646;2024-02-23T06:54:44;5.70;99.90
22249;DHT22;67538;52.180;5.646;2024-02-23T06:57:11;5.80;99.90
22249;DHT22;67538;52.180;5.646;2024-02-23T06:59:38;5.80;99.90
22249;DHT22;67538;52.180;5.646;2024-02-23T07:02:07;5.80;99.90
22249;DHT22;67538;52.180;5.646;2024-02-23T07:04:34;5.80;99.90
22249;DHT22;67538;52.180;5.646;2024-02-23T07:07:01;5.80;99.90
22249;DHT22;67538;52.180;5.646;2024-02-23T07:09:33;5.90;99.90
22249;DHT22;67538;52.180;5.646;2024-02-23T07:12:00;5.90;99.90
22249;DHT22;67538;52.180;5.646;2024-02-23T07:14:27;5.90;99.90
22249;DHT22;67538;52.180;5.646;2024-02-23T07:16:54;5.90;99.90
22249;DHT22;67538;52.180;5.646;2024-02-23T07:19:22;5.80;99.90
22249;DHT22;67538;52.180;5.646;2024-02-23T07:21:49;5.90;99.90
22249;DHT22;67538;52.180;5.646;2024-02-23T07:24:16;5.90;99.90
22249;DHT22;67538;52.180;5.646;2024-02-23T07:26:44;5.90;99.90
22249;DHT22;67538;52.180;5.646;2024-02-23T07:29:11;5.90;99.90
22249;DHT22;67538;52.180;5.646;2024-02-23T07:31:38;5.90;99.90
22249;DHT22;67538;52.180;5.646;2024-02-23T07:34:05;5.90;99.90
22249;DHT22;67538;52.180;5.646;2024-02-23T07:36:34;5.90;99.90
22249;DHT22;67538;52.180;5.646;2024-02-23T07:39:01;5.90;99.90
22249;DHT22;67538;52.180;5.646;2024-02-23T07:41:29;6.00;99.90
22249;DHT22;67538;52.180;5.646;2024-02-23T07:43:56;6.00;99.90
22249;DHT22;67538;52.180;5.646;2024-02-23T07:46:23;6.00;99.90
22249;DHT22;67538;52.180;5.646;2024-02-23T07:48:50;6.10;99.90
22249;DHT22;67538;52.180;5.646;2024-02-23T07:51:17;6.10;99.90
22249;DHT22;67538;52.180;5.646;2024-02-23T07:53:46;6.10;99.90
22249;DHT22;67538;52.180;5.646;2024-02-23T07:56:13;6.10;99.90
22249;DHT22;67538;52.180;5.646;2024-02-23T07:58:42;6.10;99.90
22249;DHT22;67538;52.180;5.646;2024-02-23T08:01:09;6.20;99.90
22249;DHT22;67538;52.180;5.646;2024-02-23T08:03:36;6.20;99.90
22249;DHT22;67538;52.180;5.646;2024-02-23T08:06:04;6.20;99.90
22249;DHT22;67538;52.180;5.646;2024-02-23T08:08:31;6.40;99.90
22249;DHT22;67538;52.180;5.646;2024-02-23T08:11:02;6.40;99.90
22249;DHT22;67538;52.180;5.646;2024-02-23T08:13:29;6.50;99.90
22249;DHT22;67538;52.180;5.646;2024-02-23T08:15:56;6.50;99.90
22249;DHT22;67538;52.180;5.646;2024-02-23T08:18:24;6.50;99.90
22249;DHT22;67538;52.180;5.646;2024-02-23T08:20:51;6.40;99.90
22249;DHT22;67538;52.180;5.646;2024-02-23T08:23:18;6.40;99.90
22249;DHT22;67538;52.180;5.646;2024-02-23T08:25:46;6.30;99.90
22249;DHT22;67538;52.180;5.646;2024-02-23T08:28:15;6.30;99.90
22249;DHT22;67538;52.180;5.646;2024-02-23T08:30:42;6.30;99.90
22249;DHT22;67538;52.180;5.646;2024-02-23T08:33:09;6.30;99.90
22249;DHT22;67538;52.180;5.646;2024-02-23T08:35:36;6.30;99.90
22249;DHT22;67538;52.180;5.646;2024-02-23T08:38:03;6.40;99.90
22249;DHT22;67538;52.180;5.646;2024-02-23T08:40:30;6.40;99.90
22249;DHT22;67538;52.180;5.646;2024-02-23T08:42:57;6.40;99.90
22249;DHT22;67538;52.180;5.646;2024-02-23T08:45:26;6.40;99.90
22249;DHT22;67538;52.180;5.646;2024-02-23T08:47:53;6.40;99.90
22249;DHT22;67538;52.180;5.646;2024-02-23T08:50:20;6.40;99.90
22249;DHT22;67538;52.180;5.646;2024-02-23T08:52:47;6.40;99.90
22249;DHT22;67538;52.180;5.646;2024-02-23T08:55:14;6.40;99.90
22249;DHT22;67538;52.180;5.646;2024-02-23T08:57:41;6.50;99.90
22249;DHT22;67538;52.180;5.646;2024-02-23T09:00:10;6.50;99.90
22249;DHT22;67538;52.180;5.646;2024-02-23T09:02:38;6.50;99.90
22249;DHT22;67538;52.180;5.646;2024-02-23T09:05:07;6.50;99.90
22249;DHT22;67538;52.180;5.646;2024-02-23T09:07:34;6.40;99.90
22249;DHT22;67538;52.180;5.646;2024-02-23T09:10:02;6.50;99.90
22249;DHT22;67538;52.180;5.646;2024-02-23T09:12:30;6.40;99.90
22249;DHT22;67538;52.180;5.646;2024-02-23T09:14:57;6.40;99.90
22249;DHT22;67538;52.180;5.646;2024-02-23T09:17:24;6.40;99.90
22249;DHT22;67538;52.180;5.646;2024-02-23T09:19:53;6.40;99.90
22249;DHT22;67538;52.180;5.646;2024-02-23T09:22:20;6.50;99.90
22249;DHT22;67538;52.180;5.646;2024-02-23T09:24:48;6.50;99.90
22249;DHT22;67538;52.180;5.646;2024-02-23T09:27:15;6.50;99.90
22249;DHT22;67538;52.180;5.646;2024-02-23T09:29:42;6.60;99.90
22249;DHT22;67538;52.180;5.646;2024-02-23T09:32:09;6.60;99.90
22249;DHT22;67538;52.180;5.646;2024-02-23T09:34:37;6.50;99.90
22249;DHT22;67538;52.180;5.646;2024-02-23T09:37:05;6.50;99.90
22249;DHT22;67538;52.180;5.646;2024-02-23T09:39:32;6.50;99.90
22249;DHT22;67538;52.180;5.646;2024-02-23T09:42:01;6.40;99.90
22249;DHT22;67538;52.180;5.646;2024-02-23T09:44:32;6.40;99.90
22249;DHT22;67538;52.180;5.646;2024-02-23T09:47:00;6.40;99.90
22249;DHT22;67538;52.180;5.646;2024-02-23T09:49:34;6.50;99.90
22249;DHT22;67538;52.180;5.646;2024-02-23T09:52:05;6.60;99.90
22249;DHT22;67538;52.180;5.646;2024-02-23T09:54:33;6.60;99.90
22249;DHT22;67538;52.180;5.646;2024-02-23T09:57:02;6.70;99.90
22249;DHT22;67538;52.180;5.646;2024-02-23T09:59:34;6.70;99.90
22249;DHT22;67538;52.180;5.646;2024-02-23T10:02:02;6.70;99.90
22249;DHT22;67538;52.180;5.646;2024-02-23T10:04:34;6.70;99.90
22249;DHT22;67538;52.180;5.646;2024-02-23T10:07:00;6.70;99.90
22249;DHT22;67538;52.180;5.646;2024-02-23T10:09:28;6.60;99.90
22249;DHT22;67538;52.180;5.646;2024-02-23T10:11:56;6.60;99.90
22249;DHT22;67538;52.180;5.646;2024-02-23T10:14:23;6.50;99.90
22249;DHT22;67538;52.180;5.646;2024-02-23T10:16:50;6.50;99.90
22249;DHT22;67538;52.180;5.646;2024-02-23T10:19:19;6.50;99.90
22249;DHT22;67538;52.180;5.646;2024-02-23T10:21:46;6.60;99.90
22249;DHT22;67538;52.180;5.646;2024-02-23T10:24:15;6.60;99.90
22249;DHT22;67538;52.180;5.646;2024-02-23T10:26:44;6.60;99.90
22249;DHT22;67538;52.180;5.646;2024-02-23T10:29:11;6.70;99.90
22249;DHT22;67538;52.180;5.646;2024-02-23T10:31:39;6.70;99.90
22249;DHT22;67538;52.180;5.646;2024-02-23T10:34:09;6.70;99.90
22249;DHT22;67538;52.180;5.646;2024-02-23T10:36:40;6.80;99.90
22249;DHT22;67538;52.180;5.646;2024-02-23T10:39:08;6.80;99.90
22249;DHT22;67538;52.180;5.646;2024-02-23T10:41:36;6.80;99.90
22249;DHT22;67538;52.180;5.646;2024-02-23T10:44:05;6.90;99.90
22249;DHT22;67538;52.180;5.646;2024-02-23T10:46:33;6.90;99.90
22249;DHT22;67538;52.180;5.646;2024-02-23T10:49:01;7.00;99.90
22249;DHT22;67538;52.180;5.646;2024-02-23T10:51:31;7.00;99.90
22249;DHT22;67538;52.180;5.646;2024-02-23T10:53:59;6.90;99.90
22249;DHT22;67538;52.180;5.646;2024-02-23T10:56:27;6.80;99.90
22249;DHT22;67538;52.180;5.646;2024-02-23T10:58:54;6.70;99.90
22249;DHT22;67538;52.180;5.646;2024-02-23T11:01:24;6.70;99.90
22249;DHT22;67538;52.180;5.646;2024-02-23T11:03:52;6.70;99.90
22249;DHT22;67538;52.180;5.646;2024-02-23T11:06:20;6.60;99.90
22249;DHT22;67538;52.180;5.646;2024-02-23T11:08:47;6.70;99.90
22249;DHT22;67538;52.180;5.646;2024-02-23T11:11:16;6.70;99.90
22249;DHT22;67538;52.180;5.646;2024-02-23T11:13:44;6.80;99.90
22249;DHT22;67538;52.180;5.646;2024-02-23T11:16:22;6.80;99.90
22249;DHT22;67538;52.180;5.646;2024-02-23T11:18:50;6.90;99.90
22249;DHT22;67538;52.180;5.646;2024-02-23T11:21:34;7.00;99.90
22249;DHT22;67538;52.180;5.646;2024-02-23T11:24:03;7.10;99.90
22249;DHT22;67538;52.180;5.646;2024-02-23T11:26:31;7.20;99.90
22249;DHT22;67538;52.180;5.646;2024-02-23T11:28:59;7.30;99.90
22249;DHT22;67538;52.180;5.646;2024-02-23T11:31:30;7.30;99.90
22249;DHT22;67538;52.180;5.646;2024-02-23T11:33:58;7.40;99.90
22249;DHT22;67538;52.180;5.646;2024-02-23T11:36:28;7.40;99.90
22249;DHT22;67538;52.180;5.646;2024-02-23T11:38:57;7.40;99.90
22249;DHT22;67538;52.180;5.646;2024-02-23T11:41:25;7.50;99.90
22249;DHT22;67538;52.180;5.646;2024-02-23T11:43:54;7.60;99.90
22249;DHT22;67538;52.180;5.646;2024-02-23T11:46:21;7.70;99.90
22249;DHT22;67538;52.180;5.646;2024-02-23T11:48:50;7.70;99.90
22249;DHT22;67538;52.180;5.646;2024-02-23T11:51:20;7.70;99.90
22249;DHT22;67538;52.180;5.646;2024-02-23T11:53:47;7.80;99.90
22249;DHT22;67538;52.180;5.646;2024-02-23T11:56:15;7.80;99.90
22249;DHT22;67538;52.180;5.646;2024-02-23T11:58:43;7.80;99.90
22249;DHT22;67538;52.180;5.646;2024-02-23T12:01:10;7.90;99.90
22249;DHT22;67538;52.180;5.646;2024-02-23T12:03:37;7.80;99.90
22249;DHT22;67538;52.180;5.646;2024-02-23T12:06:07;7.80;99.90
22249;DHT22;67538;52.180;5.646;2024-02-23T12:08:35;7.80;99.90
22249;DHT22;67538;52.180;5.646;2024-02-23T12:11:05;7.80;99.90
22249;DHT22;67538;52.180;5.646;2024-02-23T12:13:34;7.70;99.90
22249;DHT22;67538;52.180;5.646;2024-02-23T12:16:02;7.80;99.90
22249;DHT22;67538;52.180;5.646;2024-02-23T12:18:29;7.80;99.90
22249;DHT22;67538;52.180;5.646;2024-02-23T12:20:59;7.90;99.90
22249;DHT22;67538;52.180;5.646;2024-02-23T12:23:38;7.80;99.90
22249;DHT22;67538;52.180;5.646;2024-02-23T12:26:05;7.80;99.90
22249;DHT22;67538;52.180;5.646;2024-02-23T12:28:32;7.80;99.90
22249;DHT22;67538;52.180;5.646;2024-02-23T12:31:00;7.80;99.90
22249;DHT22;67538;52.180;5.646;2024-02-23T12:33:28;7.80;99.90
22249;DHT22;67538;52.180;5.646;2024-02-23T12:35:56;7.90;99.90
22249;DHT22;67538;52.180;5.646;2024-02-23T12:38:24;7.80;99.90
22249;DHT22;67538;52.180;5.646;2024-02-23T12:40:53;7.90;99.90
22249;DHT22;67538;52.180;5.646;2024-02-23T12:43:20;7.80;99.90
22249;DHT22;67538;52.180;5.646;2024-02-23T12:45:50;7.90;99.90
22249;DHT22;67538;52.180;5.646;2024-02-23T12:48:17;7.80;99.90
22249;DHT22;67538;52.180;5.646;2024-02-23T12:50:46;7.90;99.90
22249;DHT22;67538;52.180;5.646;2024-02-23T12:53:30;7.80;99.90
22249;DHT22;67538;52.180;5.646;2024-02-23T12:56:00;7.80;99.90
22249;DHT22;67538;52.180;5.646;2024-02-23T12:58:27;7.90;99.90
22249;DHT22;67538;52.180;5.646;2024-02-23T13:00:56;8.00;99.90
22249;DHT22;67538;52.180;5.646;2024-02-23T13:03:23;8.00;99.90
22249;DHT22;67538;52.180;5.646;2024-02-23T13:05:51;8.00;99.90
22249;DHT22;67538;52.180;5.646;2024-02-23T13:08:18;8.10;99.90
22249;DHT22;67538;52.180;5.646;2024-02-23T13:10:45;8.00;99.90
22249;DHT22;67538;52.180;5.646;2024-02-23T13:13:13;8.00;99.90
22249;DHT22;67538;52.180;5.646;2024-02-23T13:15:41;8.00;99.90
22249;DHT22;67538;52.180;5.646;2024-02-23T13:18:08;8.10;99.90
22249;DHT22;67538;52.180;5.646;2024-02-23T13:20:36;8.10;99.90
22249;DHT22;67538;52.180;5.646;2024-02-23T13:23:03;8.20;99.90
22249;DHT22;67538;52.180;5.646;2024-02-23T13:25:31;8.20;99.90
22249;DHT22;67538;52.180;5.646;2024-02-23T13:27:58;8.20;99.90
22249;DHT22;67538;52.180;5.646;2024-02-23T13:30:26;8.20;99.90
22249;DHT22;67538;52.180;5.646;2024-02-23T13:32:54;8.20;99.90
22249;DHT22;67538;52.180;5.646;2024-02-23T13:35:21;8.20;99.90
22249;DHT22;67538;52.180;5.646;2024-02-23T13:37:48;8.20;99.90
22249;DHT22;67538;52.180;5.646;2024-02-23T13:40:15;8.20;99.90
22249;DHT22;67538;52.180;5.646;2024-02-23T13:42:42;8.20;99.90
22249;DHT22;67538;52.180;5.646;2024-02-23T13:45:11;8.20;99.90
22249;DHT22;67538;52.180;5.646;2024-02-23T13:47:42;8.20;99.90
22249;DHT22;67538;52.180;5.646;2024-02-23T13:50:10;8.20;99.90
22249;DHT22;67538;52.180;5.646;2024-02-23T13:52:37;8.40;99.90
22249;DHT22;67538;52.180;5.646;2024-02-23T13:55:05;8.30;99.90
22249;DHT22;67538;52.180;5.646;2024-02-23T13:57:32;8.30;99.90
22249;DHT22;67538;52.180;5.646;2024-02-23T14:00:00;8.30;99.90
22249;DHT22;67538;52.180;5.646;2024-02-23T14:02:27;8.30;99.90
22249;DHT22;67538;52.180;5.646;2024-02-23T14:05:01;8.30;99.90
22249;DHT22;67538;52.180;5.646;2024-02-23T14:07:31;8.30;99.90
22249;DHT22;67538;52.180;5.646;2024-02-23T14:09:58;8.40;99.90
22249;DHT22;67538;52.180;5.646;2024-02-23T14:12:25;8.30;99.90
22249;DHT22;67538;52.180;5.646;2024-02-23T14:14:53;8.30;99.90
22249;DHT22;67538;52.180;5.646;2024-02-23T14:17:20;8.40;99.90
22249;DHT22;67538;52.180;5.646;2024-02-23T14:19:47;8.40;99.90
22249;DHT22;67538;52.180;5.646;2024-02-23T14:22:17;8.30;99.90
22249;DHT22;67538;52.180;5.646;2024-02-23T14:24:44;8.40;99.90
22249;DHT22;67538;52.180;5.646;2024-02-23T14:27:12;8.40;99.90
22249;DHT22;67538;52.180;5.646;2024-02-23T14:29:39;8.30;99.90
22249;DHT22;67538;52.180;5.646;2024-02-23T14:32:06;8.30;99.90
22249;DHT22;67538;52.180;5.646;2024-02-23T14:34:33;8.30;99.90
22249;DHT22;67538;52.180;5.646;2024-02-23T14:37:00;8.30;99.90
22249;DHT22;67538;52.180;5.646;2024-02-23T14:39:29;8.40;99.90
22249;DHT22;67538;52.180;5.646;2024-02-23T14:41:56;8.40;99.90
22249;DHT22;67538;52.180;5.646;2024-02-23T14:44:23;8.40;99.90
22249;DHT22;67538;52.180;5.646;2024-02-23T14:46:50;8.50;99.90
22249;DHT22;67538;52.180;5.646;2024-02-23T14:49:17;8.60;99.90
22249;DHT22;67538;52.180;5.646;2024-02-23T14:51:44;8.60;99.90
22249;DHT22;67538;52.180;5.646;2024-02-23T14:54:14;8.70;99.90
22249;DHT22;67538;52.180;5.646;2024-02-23T14:56:42;8.70;99.90
22249;DHT22;67538;52.180;5.646;2024-02-23T14:59:09;8.80;99.90
22249;DHT22;67538;52.180;5.646;2024-02-23T15:01:37;8.90;99.90
22249;DHT22;67538;52.180;5.646;2024-02-23T15:04:06;8.90;99.90
22249;DHT22;67538;52.180;5.646;2024-02-23T15:06:34;8.90;99.90
22249;DHT22;67538;52.180;5.646;2024-02-23T15:09:02;8.80;99.90
22249;DHT22;67538;52.180;5.646;2024-02-23T15:11:29;8.90;99.90
22249;DHT22;67538;52.180;5.646;2024-02-23T15:13:58;8.80;99.90
22249;DHT22;67538;52.180;5.646;2024-02-23T15:16:27;8.70;99.90
22249;DHT22;67538;52.180;5.646;2024-02-23T15:18:56;8.70;99.90
22249;DHT22;67538;52.180;5.646;2024-02-23T15:21:23;8.60;99.90
22249;DHT22;67538;52.180;5.646;2024-02-23T15:23:50;8.60;99.90
22249;DHT22;67538;52.180;5.646;2024-02-23T15:26:17;8.60;99.90
22249;DHT22;67538;52.180;5.646;2024-02-23T15:28:45;8.60;99.90
22249;DHT22;67538;52.180;5.646;2024-02-23T15:31:13;8.60;99.90
22249;DHT22;67538;52.180;5.646;2024-02-23T15:33:41;8.70;99.90
22249;DHT22;67538;52.180;5.646;2024-02-23T15:36:08;8.70;99.90
22249;DHT22;67538;52.180;5.646;2024-02-23T15:38:35;8.70;99.90
22249;DHT22;67538;52.180;5.646;2024-02-23T15:41:02;8.60;99.90
22249;DHT22;67538;52.180;5.646;2024-02-23T15:43:29;8.60;99.90
22249;DHT22;67538;52.180;5.646;2024-02-23T15:45:56;8.50;99.90
22249;DHT22;67538;52.180;5.646;2024-02-23T15:48:25;8.50;99.90